Alpha, IL

6:02 PM CST on December 21, 2014 (GMT -0600)
Old Schoolhouse Lane | Change Station
CLOSE
Current Station
Personal Weather Station
Location: Ophiem, IL
Elevation: 696 ft
Nearby Weather Stations

Elev 696 ft 41.25 °N, 90.38 °W | Updated 22 seconds ago

Overcast
Overcast
35.6 °F
Feels Like 31 °F
N
5.8
Wind Variable Wind from SE
Gusts 7.4 mph

Today
High -- | Low -- °F
--% Chance of Precip.
Yesterday
High -- | Low -- °F
Precip. -- in
7:23 AM 4:35 PM
Waning Crescent, 0% visible
Pressure 29.97 in
Visibility 10.0 miles
Clouds Overcast 4100 ft
Windchill 31 °F
Dew Point 32 °F
Humidity 88%
Rainfall 0.00 in
Snow Depth Not available.
UV 0 out of 12
Pollen .10 out of 12
Air Quality Not available.
Flu Activity Not available.
METAR KGBG 212355Z AUTO 14008G15KT 10SM OVC041 02/00 A2997 RMK AO2 T00230001 10041 20023

More Conditions Fewer Conditions

Pressure 29.97 in
Visibility 10.0 miles
Clouds Overcast 4100 ft
Windchill 31 °F
Dew Point 32 °F
Humidity 88%
Rainfall 0.00 in
Snow Depth Not available.
UV 0 out of 12
Pollen .10 out of 12
Air Quality Not available.
Flu Activity Not available.
METAR KGBG 212355Z AUTO 14008G15KT 10SM OVC041 02/00 A2997 RMK AO2 T00230001 10041 20023

More Conditions Fewer Conditions

10-Day Weather Forecast

Almanac

Astronomy

Dec. 21, 2014 Rise Set
Actual Time
Civil Twilight
Nautical Twilight
Astronomical Twilight
Moon
Length of Visible Light
Length of Day
Tomorrow will be .
, % of the Moon is Illuminated

Today's Extremes

State Highs State Lows

Community

WunderPhotos

Upload Photos

1,779,509 photos uploaded!

WunderBlogs® & News

Nearby

Air Quality

  Air Quality AQ Index Pollutant
Not available.

Snow Depth

Station Depth Elevation

Earthquake Activity

City Distance Mag. Time & Date
Minimum magnitude displayed is 2.5.

Coastal Water Temperatures

Place Temperature

Nearby Weather Stations